Huvudsida
METAR-TAF:

METAR-TAF

Flygplatser :

Harbin Taiping International Airport

Harbin, Kina

latitud: 45-45N, longitud: 126-46E, höjd: 143 m

Aktuellt väderrapport

Denna rapport gjordes för 48 minuter sedan, klockan 11:00 UTC
Vind 2 kt från syd
Temperatur 10°C
Fuktighet 82%
Tryck 1021 hPa
Sikt 10 km eller mer
Inga moln under 1 500 m eller inga cumulonimbus

METAR: ZYHB 251100Z 19001MPS CAVOK 10/07 Q1021 NOSIG

Tid: 19:48 (11:48 UTC)

Väderprognos

Denna rapport gjordes för 2 timmar och 41 minuter sedan, klockan 09:07 UTC
Prognos gäller från 25 kl. 12 UTC till 26 kl. 12 UTC
Vind 6 kt från sydväst
Sikt: 6000 m
Få moln på en höjd av 3000 ft

TAF: ZYHB 250907Z 2512/2612 23003MPS 6000 FEW030 TX21/2606Z TN05/2521Z

Aktuella väderrapporter och prognoser från 4000 flygplatser (METAR- och TAF-rapporter).

De tillgängliga stationerna syns som gula och röda prickar på kartan.

För musen över prickarna för att se namnen på stationerna.

Klicka sedan för att få väderrapporter och prognoser.

För att ändra kartan: Klicka på de gröna knapparna med ett svart kors på för att zooma in; den gröna knappen med ett streck på för att zooma ut; eller på de gröna pilarna för angränsande kartor.


METAR-TAF: